AirNav   TITAN Aviation Fuels
 
 1021 users online  

5CN4 Vosburgh Airfield
Cuyama, California, USA

GOING TO CUYAMA?


FAA INFORMATION EFFECTIVE 02 DECEMBER 2021

Location

FAA Identifier: 5CN4
Lat/Long: 34-55-25.0800N 119-34-17.4000W
34-55.418000N 119-34.290000W
34.9236333,-119.5715000
(estimated)
Elevation: 2200 ft. / 671 m (estimated)
From city: 3 miles E of CUYAMA, CA
Time zone: UTC -8 (UTC -7 during Daylight Saving Time)
Zip code: 93254

Airport Operations

Airport use: Private use. Permission required prior to landing
Activation date: 02/2011
Control tower: no
ARTCC: LOS ANGELES CENTER
FSS: RANCHO MURIETA FLIGHT SERVICE STATION
Attendance: CONTINUOUS
Wind indicator: yes
Segmented circle: no

Nearby radio navigation aids

VOR radial/distance  VOR name  Freq  Var
FLWr109/17.7FELLOWS VOR/DME117.5016E
RZSr008/26.7SAN MARCUS VORTAC114.9014E
GVOr031/34.8GAVIOTA VORTAC113.8016E
GMNr266/35.7GORMAN VORTAC116.1016E

Airport Services

Runway Information

Runway 16/34

Dimensions: 2600 x 60 ft. / 792 x 18 m
Surface: dirt, in good condition
RUNWAY 16  RUNWAY 34
Traffic pattern: leftleft
Obstructions: 30 ft. plines, 50 ft. from runwaynone

Airport Ownership and Management from official FAA records

Ownership: Privately-owned
Owner: JASON DOUGLAS VOSBURGH
204 S LEMEN ST
FENTON, MI 48430-2305
Phone 805-766-3880
Manager: JASON VOSBURGH
1654 HWY 166
CUYAMA, CA 93254
Phone 805-766-3880

Airport Operational Statistics

Aircraft based on the field: 1
Single engine airplanes: 1
    
Aircraft operations: 1/year *
100% local general aviation
* for 12-month period ending 04 July 2010

Additional Remarks

FOR CD CTC LOS ANGELES ARTCC AT 661-575-2079.

Instrument Procedures

There are no published instrument procedures at 5CN4.

Some nearby airports with instrument procedures:

KIZA - Santa Ynez Airport (31 nm SW)
KSBA - Santa Barbara Municipal Airport (33 nm SW)
L45 - Bakersfield Municipal Airport (37 nm NE)
KBFL - Meadows Field Airport (40 nm NE)
KMIT - Shafter Airport-Minter Field (40 nm NE)
 
Loc | Ops | Rwys | IFR | FBO | Links
Com | Nav | Svcs | Stats | Notes
Aerial photo
WARNING: Photo may not be current or correct
Aerial photo of 5CN4 (Vosburgh Airfield)
Photo by Jason Vosburgh
Photo taken 28-May-2011

Do you have a better or more recent aerial photo of Vosburgh Airfield that you would like to share? If so, please send us your photo.

 
Sectional chart

 
Airport distance calculator
Flying to Vosburgh Airfield? Find the distance to fly.

From to 5CN4

Sunrise and sunset
Times for 07-Dec-2021
 Local
(UTC-8)
 Zulu
(UTC)
Morning civil twilight06:2614:26
Sunrise06:5414:54
Sunset16:4600:46
Evening civil twilight17:1401:14

Current date and time
Zulu (UTC)  08-Dec-2021 00:26:27
Local (UTC-8)  07-Dec-2021 16:26:27
 
METAR
KIZA 
31nm SW 
080015Z AUTO 23008KT 3SM HZ OVC095 15/11 A2995 RMK AO2
KSBA 
32nm SW 
072353Z 00000KT 7SM BKN025 OVC100 16/11 A2995 RMK AO2 SLP141 T01610111 10178 20156 50001 $
KBFL 
40nm NE 
072354Z 00000KT 3SM HZ BKN120 14/07 A2999 RMK AO2 TWR VIS 4 SLP155 T01390072 10150 20106 53001
KSMX 
43nm W 
072351Z 31006KT 8SM BKN150 15/12 A2995 RMK AO2 SLP145 T01500117 10172 20139 55001 $
KSDB 
43nm E 
072353Z AUTO VRB04KT 10SM OVC075 13/04 A3001 RMK AO2 SLP131 T01280044 10150 20106 53007
KLPC 
47nm W 
072356Z AUTO 30008KT 10SM CLR 15/12 A2995 RMK AO2 SLP144 T01500117 10178 20139 53001
KOXR 
47nm SE 
072351Z 26005KT 8SM OVC100 16/12 A2996 RMK AO2 SLP144 T01610117 10178 20156 53001
KCMA 
49nm SE 
072355Z 23005KT 8SM OVC110 17/12 A2995 RMK AO2 SLP151 T01670122 10183 20161 53000
TAF
KSBA 
32nm SW 
080000Z 0800/0824 26006KT P6SM BKN025 BKN100 FM080300 VRB03KT P6SM BKN025 BKN100 FM081000 VRB03KT 6SM BR SCT025 BKN100 FM082000 21005KT 6SM BR BKN025 FM082200 27008KT 6SM BR BKN025
KBFL 
40nm NE 
071720Z 0718/0818 VRB03KT 2SM BR BKN100 FM072100 VRB03KT 4SM HZ BKN100 FM080600 VRB03KT 4SM BR SKC FM081000 08003KT 2SM BR SKC
NOTAMs
Click for the latest NOTAMs
NOTAMs are issued by the DoD/FAA and will open in a separate window not controlled by AirNav.

 

 
 

Would you like to see your business listed on this page?

 If your business provides an interesting product or service to pilots, flight crews, aircraft, or users of the Vosburgh Airfield, you should consider listing it here.  To start the listing process, click on the button below
 
Add a business
 

Other Pages about Vosburgh Airfield

Update a link
 
Copyright © AirNav, LLC. All rights reserved. Privacy Policy  Contact